sensor_id;sensor_type;location;lat;lon;timestamp;P1;durP1;ratioP1;P2;durP2;ratioP2
13386;SDS011;6763;48.524;9.044;2024-01-27T00:00:19;4.30;;;1.60;;
13386;SDS011;6763;48.524;9.044;2024-01-27T00:02:45;2.40;;;1.60;;
13386;SDS011;6763;48.524;9.044;2024-01-27T00:05:10;1.80;;;1.30;;
13386;SDS011;6763;48.524;9.044;2024-01-27T00:07:36;2.50;;;1.50;;
13386;SDS011;6763;48.524;9.044;2024-01-27T00:10:01;1.73;;;1.20;;
13386;SDS011;6763;48.524;9.044;2024-01-27T00:12:27;2.50;;;1.63;;
13386;SDS011;6763;48.524;9.044;2024-01-27T00:14:52;2.23;;;1.40;;
13386;SDS011;6763;48.524;9.044;2024-01-27T00:17:17;2.00;;;1.30;;
13386;SDS011;6763;48.524;9.044;2024-01-27T00:19:44;3.00;;;2.00;;
13386;SDS011;6763;48.524;9.044;2024-01-27T00:22:10;2.43;;;1.23;;
13386;SDS011;6763;48.524;9.044;2024-01-27T00:24:35;2.63;;;1.77;;
13386;SDS011;6763;48.524;9.044;2024-01-27T00:27:00;2.57;;;1.70;;
13386;SDS011;6763;48.524;9.044;2024-01-27T00:29:25;3.50;;;1.40;;
13386;SDS011;6763;48.524;9.044;2024-01-27T00:31:51;2.73;;;1.43;;
13386;SDS011;6763;48.524;9.044;2024-01-27T00:34:16;2.70;;;1.80;;
13386;SDS011;6763;48.524;9.044;2024-01-27T00:36:42;2.30;;;1.40;;
13386;SDS011;6763;48.524;9.044;2024-01-27T00:39:13;2.03;;;1.33;;
13386;SDS011;6763;48.524;9.044;2024-01-27T00:41:39;3.63;;;1.50;;
13386;SDS011;6763;48.524;9.044;2024-01-27T00:44:05;2.07;;;1.37;;
13386;SDS011;6763;48.524;9.044;2024-01-27T00:46:30;2.27;;;1.20;;
13386;SDS011;6763;48.524;9.044;2024-01-27T00:48:55;0.93;;;0.87;;
13386;SDS011;6763;48.524;9.044;2024-01-27T00:51:21;2.57;;;1.07;;
13386;SDS011;6763;48.524;9.044;2024-01-27T00:53:46;1.03;;;0.93;;
13386;SDS011;6763;48.524;9.044;2024-01-27T00:56:11;2.63;;;1.43;;
13386;SDS011;6763;48.524;9.044;2024-01-27T00:58:37;2.73;;;1.50;;
13386;SDS011;6763;48.524;9.044;2024-01-27T01:01:02;2.30;;;1.30;;
13386;SDS011;6763;48.524;9.044;2024-01-27T01:03:28;2.43;;;1.43;;
13386;SDS011;6763;48.524;9.044;2024-01-27T01:05:53;3.73;;;1.10;;
13386;SDS011;6763;48.524;9.044;2024-01-27T01:08:18;4.00;;;1.60;;
13386;SDS011;6763;48.524;9.044;2024-01-27T01:10:44;1.93;;;1.20;;
13386;SDS011;6763;48.524;9.044;2024-01-27T01:13:09;4.80;;;1.27;;
13386;SDS011;6763;48.524;9.044;2024-01-27T01:15:34;2.50;;;1.10;;
13386;SDS011;6763;48.524;9.044;2024-01-27T01:18:00;1.43;;;0.93;;
13386;SDS011;6763;48.524;9.044;2024-01-27T01:20:25;2.93;;;1.03;;
13386;SDS011;6763;48.524;9.044;2024-01-27T01:22:52;1.17;;;1.07;;
13386;SDS011;6763;48.524;9.044;2024-01-27T01:25:17;1.13;;;0.80;;
13386;SDS011;6763;48.524;9.044;2024-01-27T01:27:43;1.63;;;0.90;;
13386;SDS011;6763;48.524;9.044;2024-01-27T01:30:09;2.10;;;1.00;;
13386;SDS011;6763;48.524;9.044;2024-01-27T01:32:36;1.33;;;0.87;;
13386;SDS011;6763;48.524;9.044;2024-01-27T01:35:01;3.10;;;1.57;;
13386;SDS011;6763;48.524;9.044;2024-01-27T01:37:26;1.20;;;0.80;;
13386;SDS011;6763;48.524;9.044;2024-01-27T01:39:52;0.83;;;0.83;;
13386;SDS011;6763;48.524;9.044;2024-01-27T01:42:17;2.33;;;0.80;;
13386;SDS011;6763;48.524;9.044;2024-01-27T01:44:45;1.00;;;0.90;;
13386;SDS011;6763;48.524;9.044;2024-01-27T01:47:10;1.03;;;0.70;;
13386;SDS011;6763;48.524;9.044;2024-01-27T01:49:36;2.27;;;0.80;;
13386;SDS011;6763;48.524;9.044;2024-01-27T01:52:01;1.70;;;0.80;;
13386;SDS011;6763;48.524;9.044;2024-01-27T01:54:26;2.83;;;1.23;;
13386;SDS011;6763;48.524;9.044;2024-01-27T01:56:53;1.60;;;1.00;;
13386;SDS011;6763;48.524;9.044;2024-01-27T01:59:20;2.27;;;1.17;;
13386;SDS011;6763;48.524;9.044;2024-01-27T02:01:45;1.27;;;1.07;;
13386;SDS011;6763;48.524;9.044;2024-01-27T02:04:11;4.07;;;1.13;;
13386;SDS011;6763;48.524;9.044;2024-01-27T02:06:36;0.80;;;0.80;;
13386;SDS011;6763;48.524;9.044;2024-01-27T02:09:01;1.93;;;1.17;;
13386;SDS011;6763;48.524;9.044;2024-01-27T02:11:27;1.33;;;1.20;;
13386;SDS011;6763;48.524;9.044;2024-01-27T02:13:52;1.27;;;1.07;;
13386;SDS011;6763;48.524;9.044;2024-01-27T02:16:18;3.10;;;1.10;;
13386;SDS011;6763;48.524;9.044;2024-01-27T02:18:43;1.70;;;1.30;;
13386;SDS011;6763;48.524;9.044;2024-01-27T02:21:09;1.37;;;1.00;;
13386;SDS011;6763;48.524;9.044;2024-01-27T02:23:34;2.50;;;0.97;;
13386;SDS011;6763;48.524;9.044;2024-01-27T02:25:59;1.33;;;1.10;;
13386;SDS011;6763;48.524;9.044;2024-01-27T02:28:25;1.47;;;0.93;;
13386;SDS011;6763;48.524;9.044;2024-01-27T02:30:50;2.13;;;1.27;;
13386;SDS011;6763;48.524;9.044;2024-01-27T02:33:15;1.47;;;0.87;;
13386;SDS011;6763;48.524;9.044;2024-01-27T02:35:41;2.40;;;0.70;;
13386;SDS011;6763;48.524;9.044;2024-01-27T02:38:08;1.43;;;1.27;;
13386;SDS011;6763;48.524;9.044;2024-01-27T02:40:34;0.97;;;0.80;;
13386;SDS011;6763;48.524;9.044;2024-01-27T02:42:59;1.80;;;0.80;;
13386;SDS011;6763;48.524;9.044;2024-01-27T02:45:24;0.90;;;0.83;;
13386;SDS011;6763;48.524;9.044;2024-01-27T02:47:50;1.43;;;1.03;;
13386;SDS011;6763;48.524;9.044;2024-01-27T02:50:15;2.27;;;1.03;;
13386;SDS011;6763;48.524;9.044;2024-01-27T02:52:41;0.70;;;0.70;;
13386;SDS011;6763;48.524;9.044;2024-01-27T02:55:06;1.70;;;1.10;;
13386;SDS011;6763;48.524;9.044;2024-01-27T02:57:32;2.67;;;1.10;;
13386;SDS011;6763;48.524;9.044;2024-01-27T02:59:57;2.17;;;1.20;;
13386;SDS011;6763;48.524;9.044;2024-01-27T03:02:23;3.43;;;0.90;;
13386;SDS011;6763;48.524;9.044;2024-01-27T03:04:48;1.43;;;0.90;;
13386;SDS011;6763;48.524;9.044;2024-01-27T03:07:13;1.87;;;1.10;;
13386;SDS011;6763;48.524;9.044;2024-01-27T03:09:39;1.20;;;0.90;;
13386;SDS011;6763;48.524;9.044;2024-01-27T03:12:04;2.13;;;1.00;;
13386;SDS011;6763;48.524;9.044;2024-01-27T03:14:30;1.33;;;1.23;;
13386;SDS011;6763;48.524;9.044;2024-01-27T03:16:55;0.83;;;0.80;;
13386;SDS011;6763;48.524;9.044;2024-01-27T03:19:20;0.80;;;0.80;;
13386;SDS011;6763;48.524;9.044;2024-01-27T03:21:46;1.13;;;0.83;;
13386;SDS011;6763;48.524;9.044;2024-01-27T03:24:11;1.40;;;1.00;;
13386;SDS011;6763;48.524;9.044;2024-01-27T03:26:37;5.03;;;1.30;;
13386;SDS011;6763;48.524;9.044;2024-01-27T03:29:02;2.70;;;1.27;;
13386;SDS011;6763;48.524;9.044;2024-01-27T03:31:31;3.90;;;1.80;;
13386;SDS011;6763;48.524;9.044;2024-01-27T03:33:59;1.53;;;1.20;;
13386;SDS011;6763;48.524;9.044;2024-01-27T03:36:25;1.10;;;1.00;;
13386;SDS011;6763;48.524;9.044;2024-01-27T03:38:51;1.40;;;1.30;;
13386;SDS011;6763;48.524;9.044;2024-01-27T03:41:17;1.03;;;0.93;;
13386;SDS011;6763;48.524;9.044;2024-01-27T03:43:42;1.33;;;0.90;;
13386;SDS011;6763;48.524;9.044;2024-01-27T03:46:07;1.73;;;1.47;;
13386;SDS011;6763;48.524;9.044;2024-01-27T03:48:33;2.80;;;1.87;;
13386;SDS011;6763;48.524;9.044;2024-01-27T03:51:00;1.77;;;1.27;;
13386;SDS011;6763;48.524;9.044;2024-01-27T03:53:26;2.40;;;1.30;;
13386;SDS011;6763;48.524;9.044;2024-01-27T03:55:51;1.47;;;1.37;;
13386;SDS011;6763;48.524;9.044;2024-01-27T03:58:16;7.20;;;2.23;;
13386;SDS011;6763;48.524;9.044;2024-01-27T04:00:41;1.57;;;1.47;;
13386;SDS011;6763;48.524;9.044;2024-01-27T04:03:07;5.77;;;1.73;;
13386;SDS011;6763;48.524;9.044;2024-01-27T04:05:34;2.90;;;1.77;;
13386;SDS011;6763;48.524;9.044;2024-01-27T04:07:59;2.77;;;2.00;;
13386;SDS011;6763;48.524;9.044;2024-01-27T04:10:25;2.57;;;1.73;;
13386;SDS011;6763;48.524;9.044;2024-01-27T04:12:50;3.73;;;1.40;;
13386;SDS011;6763;48.524;9.044;2024-01-27T04:15:15;2.00;;;1.13;;
13386;SDS011;6763;48.524;9.044;2024-01-27T04:17:41;2.13;;;1.33;;
13386;SDS011;6763;48.524;9.044;2024-01-27T04:20:07;2.77;;;1.50;;
13386;SDS011;6763;48.524;9.044;2024-01-27T04:22:33;1.60;;;1.33;;
13386;SDS011;6763;48.524;9.044;2024-01-27T04:24:59;2.17;;;1.40;;
13386;SDS011;6763;48.524;9.044;2024-01-27T04:27:28;6.57;;;2.13;;
13386;SDS011;6763;48.524;9.044;2024-01-27T04:29:53;3.17;;;1.83;;
13386;SDS011;6763;48.524;9.044;2024-01-27T04:32:19;1.70;;;1.50;;
13386;SDS011;6763;48.524;9.044;2024-01-27T04:34:46;2.47;;;1.57;;
13386;SDS011;6763;48.524;9.044;2024-01-27T04:37:11;1.40;;;1.20;;
13386;SDS011;6763;48.524;9.044;2024-01-27T04:39:37;2.77;;;1.37;;
13386;SDS011;6763;48.524;9.044;2024-01-27T04:42:02;4.77;;;1.50;;
13386;SDS011;6763;48.524;9.044;2024-01-27T04:44:28;2.20;;;2.00;;
13386;SDS011;6763;48.524;9.044;2024-01-27T04:46:53;1.90;;;1.47;;
13386;SDS011;6763;48.524;9.044;2024-01-27T04:49:19;1.93;;;1.13;;
13386;SDS011;6763;48.524;9.044;2024-01-27T04:51:44;3.93;;;1.73;;
13386;SDS011;6763;48.524;9.044;2024-01-27T04:54:10;1.70;;;1.17;;
13386;SDS011;6763;48.524;9.044;2024-01-27T04:56:35;2.57;;;1.63;;
13386;SDS011;6763;48.524;9.044;2024-01-27T04:59:01;1.47;;;1.30;;
13386;SDS011;6763;48.524;9.044;2024-01-27T05:01:27;1.97;;;1.33;;
13386;SDS011;6763;48.524;9.044;2024-01-27T05:03:52;3.40;;;1.70;;
13386;SDS011;6763;48.524;9.044;2024-01-27T05:06:18;1.77;;;1.30;;
13386;SDS011;6763;48.524;9.044;2024-01-27T05:08:43;1.17;;;1.07;;
13386;SDS011;6763;48.524;9.044;2024-01-27T05:11:09;1.33;;;0.93;;
13386;SDS011;6763;48.524;9.044;2024-01-27T05:13:34;2.47;;;1.47;;
13386;SDS011;6763;48.524;9.044;2024-01-27T05:16:00;1.07;;;0.97;;
13386;SDS011;6763;48.524;9.044;2024-01-27T05:18:25;1.00;;;1.00;;
13386;SDS011;6763;48.524;9.044;2024-01-27T05:20:51;1.87;;;1.70;;
13386;SDS011;6763;48.524;9.044;2024-01-27T05:23:16;1.20;;;1.10;;
13386;SDS011;6763;48.524;9.044;2024-01-27T05:25:42;3.90;;;1.40;;
13386;SDS011;6763;48.524;9.044;2024-01-27T05:28:07;1.83;;;0.97;;
13386;SDS011;6763;48.524;9.044;2024-01-27T05:30:32;3.23;;;1.60;;
13386;SDS011;6763;48.524;9.044;2024-01-27T05:32:58;1.40;;;1.10;;
13386;SDS011;6763;48.524;9.044;2024-01-27T05:35:23;1.30;;;1.20;;
13386;SDS011;6763;48.524;9.044;2024-01-27T05:37:48;2.10;;;1.30;;
13386;SDS011;6763;48.524;9.044;2024-01-27T05:40:15;1.47;;;1.20;;
13386;SDS011;6763;48.524;9.044;2024-01-27T05:42:41;1.50;;;1.23;;
13386;SDS011;6763;48.524;9.044;2024-01-27T05:45:08;4.00;;;1.43;;
13386;SDS011;6763;48.524;9.044;2024-01-27T05:47:35;3.47;;;1.40;;
13386;SDS011;6763;48.524;9.044;2024-01-27T05:50:00;2.13;;;1.30;;
13386;SDS011;6763;48.524;9.044;2024-01-27T05:52:25;1.63;;;1.43;;
13386;SDS011;6763;48.524;9.044;2024-01-27T05:54:51;2.93;;;1.50;;
13386;SDS011;6763;48.524;9.044;2024-01-27T05:57:17;2.00;;;1.43;;
13386;SDS011;6763;48.524;9.044;2024-01-27T05:59:42;1.33;;;1.10;;
13386;SDS011;6763;48.524;9.044;2024-01-27T06:02:08;2.13;;;1.37;;
13386;SDS011;6763;48.524;9.044;2024-01-27T06:04:33;4.57;;;2.00;;
13386;SDS011;6763;48.524;9.044;2024-01-27T06:06:59;1.57;;;1.47;;
13386;SDS011;6763;48.524;9.044;2024-01-27T06:09:25;2.07;;;1.40;;
13386;SDS011;6763;48.524;9.044;2024-01-27T06:11:50;4.80;;;1.20;;
13386;SDS011;6763;48.524;9.044;2024-01-27T06:14:16;2.53;;;1.57;;
13386;SDS011;6763;48.524;9.044;2024-01-27T06:16:41;1.17;;;1.07;;
13386;SDS011;6763;48.524;9.044;2024-01-27T06:19:09;3.93;;;1.90;;
13386;SDS011;6763;48.524;9.044;2024-01-27T06:21:35;1.50;;;1.40;;
13386;SDS011;6763;48.524;9.044;2024-01-27T06:24:00;3.87;;;1.70;;
13386;SDS011;6763;48.524;9.044;2024-01-27T06:26:26;1.13;;;0.90;;
13386;SDS011;6763;48.524;9.044;2024-01-27T06:28:51;1.47;;;1.37;;
13386;SDS011;6763;48.524;9.044;2024-01-27T06:31:16;5.00;;;1.77;;
13386;SDS011;6763;48.524;9.044;2024-01-27T06:33:42;4.77;;;2.60;;
13386;SDS011;6763;48.524;9.044;2024-01-27T06:36:08;2.13;;;1.83;;
13386;SDS011;6763;48.524;9.044;2024-01-27T06:38:34;1.40;;;1.00;;
13386;SDS011;6763;48.524;9.044;2024-01-27T06:41:00;2.40;;;1.47;;
13386;SDS011;6763;48.524;9.044;2024-01-27T06:43:25;5.40;;;1.93;;
13386;SDS011;6763;48.524;9.044;2024-01-27T06:45:51;3.33;;;1.50;;
13386;SDS011;6763;48.524;9.044;2024-01-27T06:48:16;3.60;;;1.67;;
13386;SDS011;6763;48.524;9.044;2024-01-27T06:50:41;1.33;;;1.23;;
13386;SDS011;6763;48.524;9.044;2024-01-27T06:53:07;3.30;;;1.97;;
13386;SDS011;6763;48.524;9.044;2024-01-27T06:55:33;2.50;;;1.57;;
13386;SDS011;6763;48.524;9.044;2024-01-27T06:57:58;3.80;;;2.10;;
13386;SDS011;6763;48.524;9.044;2024-01-27T07:00:23;4.40;;;2.17;;
13386;SDS011;6763;48.524;9.044;2024-01-27T07:02:49;5.17;;;2.30;;
13386;SDS011;6763;48.524;9.044;2024-01-27T07:05:14;2.67;;;2.00;;
13386;SDS011;6763;48.524;9.044;2024-01-27T07:07:41;4.40;;;2.67;;
13386;SDS011;6763;48.524;9.044;2024-01-27T07:10:07;5.80;;;2.17;;
13386;SDS011;6763;48.524;9.044;2024-01-27T07:12:33;2.27;;;1.40;;
13386;SDS011;6763;48.524;9.044;2024-01-27T07:14:58;4.73;;;2.60;;
13386;SDS011;6763;48.524;9.044;2024-01-27T07:17:24;4.23;;;2.90;;
13386;SDS011;6763;48.524;9.044;2024-01-27T07:19:53;4.30;;;2.40;;
13386;SDS011;6763;48.524;9.044;2024-01-27T07:22:18;3.23;;;2.23;;
13386;SDS011;6763;48.524;9.044;2024-01-27T07:24:44;4.97;;;3.10;;
13386;SDS011;6763;48.524;9.044;2024-01-27T07:27:11;5.43;;;3.03;;
13386;SDS011;6763;48.524;9.044;2024-01-27T07:29:38;3.63;;;2.30;;
13386;SDS011;6763;48.524;9.044;2024-01-27T07:32:03;4.47;;;2.40;;
13386;SDS011;6763;48.524;9.044;2024-01-27T07:34:29;4.50;;;2.43;;
13386;SDS011;6763;48.524;9.044;2024-01-27T07:36:54;3.30;;;2.60;;
13386;SDS011;6763;48.524;9.044;2024-01-27T07:39:20;6.53;;;3.60;;
13386;SDS011;6763;48.524;9.044;2024-01-27T07:41:45;5.43;;;2.73;;
13386;SDS011;6763;48.524;9.044;2024-01-27T07:44:11;4.57;;;2.80;;
13386;SDS011;6763;48.524;9.044;2024-01-27T07:46:38;7.53;;;3.10;;
13386;SDS011;6763;48.524;9.044;2024-01-27T07:49:04;9.53;;;2.43;;
13386;SDS011;6763;48.524;9.044;2024-01-27T07:51:31;3.30;;;2.07;;
13386;SDS011;6763;48.524;9.044;2024-01-27T07:53:56;2.90;;;2.13;;
13386;SDS011;6763;48.524;9.044;2024-01-27T07:56:22;3.87;;;2.53;;
13386;SDS011;6763;48.524;9.044;2024-01-27T07:58:47;3.63;;;2.27;;
13386;SDS011;6763;48.524;9.044;2024-01-27T08:01:16;3.93;;;2.30;;
13386;SDS011;6763;48.524;9.044;2024-01-27T08:03:42;5.90;;;3.00;;
13386;SDS011;6763;48.524;9.044;2024-01-27T08:06:13;5.53;;;2.80;;
13386;SDS011;6763;48.524;9.044;2024-01-27T08:08:44;3.27;;;2.50;;
13386;SDS011;6763;48.524;9.044;2024-01-27T08:11:14;2.63;;;2.30;;
13386;SDS011;6763;48.524;9.044;2024-01-27T08:13:40;3.33;;;2.03;;
13386;SDS011;6763;48.524;9.044;2024-01-27T08:16:06;4.87;;;2.50;;
13386;SDS011;6763;48.524;9.044;2024-01-27T08:18:34;3.23;;;2.30;;
13386;SDS011;6763;48.524;9.044;2024-01-27T08:21:00;3.43;;;2.00;;
13386;SDS011;6763;48.524;9.044;2024-01-27T08:23:25;3.03;;;2.17;;
13386;SDS011;6763;48.524;9.044;2024-01-27T08:25:51;4.50;;;2.00;;
13386;SDS011;6763;48.524;9.044;2024-01-27T08:28:17;2.63;;;1.93;;
13386;SDS011;6763;48.524;9.044;2024-01-27T08:30:43;6.77;;;2.50;;
13386;SDS011;6763;48.524;9.044;2024-01-27T08:33:08;3.20;;;2.43;;
13386;SDS011;6763;48.524;9.044;2024-01-27T08:35:33;5.50;;;2.23;;
13386;SDS011;6763;48.524;9.044;2024-01-27T08:37:59;2.27;;;2.00;;
13386;SDS011;6763;48.524;9.044;2024-01-27T08:40:24;9.50;;;2.50;;
13386;SDS011;6763;48.524;9.044;2024-01-27T08:42:50;1.97;;;1.57;;
13386;SDS011;6763;48.524;9.044;2024-01-27T08:45:15;4.57;;;1.97;;
13386;SDS011;6763;48.524;9.044;2024-01-27T08:47:41;4.07;;;2.00;;
13386;SDS011;6763;48.524;9.044;2024-01-27T08:50:06;4.13;;;2.17;;
13386;SDS011;6763;48.524;9.044;2024-01-27T08:52:32;3.30;;;2.43;;
13386;SDS011;6763;48.524;9.044;2024-01-27T08:54:58;5.17;;;2.13;;
13386;SDS011;6763;48.524;9.044;2024-01-27T08:57:23;2.63;;;1.80;;
13386;SDS011;6763;48.524;9.044;2024-01-27T08:59:48;3.77;;;1.90;;
13386;SDS011;6763;48.524;9.044;2024-01-27T09:02:14;3.57;;;2.30;;
13386;SDS011;6763;48.524;9.044;2024-01-27T09:04:40;3.10;;;2.13;;
13386;SDS011;6763;48.524;9.044;2024-01-27T09:07:05;3.17;;;2.20;;
13386;SDS011;6763;48.524;9.044;2024-01-27T09:09:30;4.50;;;2.60;;
13386;SDS011;6763;48.524;9.044;2024-01-27T09:11:56;2.93;;;2.27;;
13386;SDS011;6763;48.524;9.044;2024-01-27T09:14:21;3.47;;;2.10;;
13386;SDS011;6763;48.524;9.044;2024-01-27T09:16:46;3.97;;;2.57;;
13386;SDS011;6763;48.524;9.044;2024-01-27T09:19:12;3.33;;;2.27;;
13386;SDS011;6763;48.524;9.044;2024-01-27T09:21:37;8.93;;;2.37;;
13386;SDS011;6763;48.524;9.044;2024-01-27T09:24:03;4.83;;;2.07;;
13386;SDS011;6763;48.524;9.044;2024-01-27T09:26:28;7.90;;;2.30;;
13386;SDS011;6763;48.524;9.044;2024-01-27T09:28:54;3.60;;;2.40;;
13386;SDS011;6763;48.524;9.044;2024-01-27T09:31:20;5.33;;;2.40;;
13386;SDS011;6763;48.524;9.044;2024-01-27T09:33:52;3.63;;;2.37;;
13386;SDS011;6763;48.524;9.044;2024-01-27T09:36:18;5.03;;;3.00;;
13386;SDS011;6763;48.524;9.044;2024-01-27T09:38:44;4.43;;;2.93;;
13386;SDS011;6763;48.524;9.044;2024-01-27T09:41:11;3.37;;;2.20;;
13386;SDS011;6763;48.524;9.044;2024-01-27T09:43:38;3.50;;;2.60;;
13386;SDS011;6763;48.524;9.044;2024-01-27T09:46:07;6.77;;;2.60;;
13386;SDS011;6763;48.524;9.044;2024-01-27T09:48:34;4.30;;;2.27;;
13386;SDS011;6763;48.524;9.044;2024-01-27T09:51:00;3.70;;;2.37;;
13386;SDS011;6763;48.524;9.044;2024-01-27T09:53:28;3.20;;;2.37;;
13386;SDS011;6763;48.524;9.044;2024-01-27T09:55:53;7.50;;;2.10;;
13386;SDS011;6763;48.524;9.044;2024-01-27T09:58:21;7.40;;;2.30;;
13386;SDS011;6763;48.524;9.044;2024-01-27T10:00:48;4.40;;;2.67;;
13386;SDS011;6763;48.524;9.044;2024-01-27T10:03:14;4.10;;;2.90;;
13386;SDS011;6763;48.524;9.044;2024-01-27T10:05:41;4.23;;;2.53;;
13386;SDS011;6763;48.524;9.044;2024-01-27T10:08:08;3.53;;;2.33;;
13386;SDS011;6763;48.524;9.044;2024-01-27T10:10:34;6.37;;;2.50;;
13386;SDS011;6763;48.524;9.044;2024-01-27T10:13:00;3.30;;;2.23;;
13386;SDS011;6763;48.524;9.044;2024-01-27T10:15:28;4.70;;;2.60;;
13386;SDS011;6763;48.524;9.044;2024-01-27T10:18:04;6.37;;;3.73;;
13386;SDS011;6763;48.524;9.044;2024-01-27T10:20:30;4.20;;;2.33;;
13386;SDS011;6763;48.524;9.044;2024-01-27T10:22:55;4.30;;;2.50;;
13386;SDS011;6763;48.524;9.044;2024-01-27T10:25:21;4.33;;;2.67;;
13386;SDS011;6763;48.524;9.044;2024-01-27T10:27:46;4.23;;;2.50;;
13386;SDS011;6763;48.524;9.044;2024-01-27T10:30:15;4.13;;;2.23;;
13386;SDS011;6763;48.524;9.044;2024-01-27T10:32:54;4.87;;;2.80;;
13386;SDS011;6763;48.524;9.044;2024-01-27T10:35:20;4.17;;;2.47;;
13386;SDS011;6763;48.524;9.044;2024-01-27T10:37:46;3.57;;;2.63;;
13386;SDS011;6763;48.524;9.044;2024-01-27T10:40:11;3.00;;;2.70;;
13386;SDS011;6763;48.524;9.044;2024-01-27T10:42:38;3.80;;;2.63;;
13386;SDS011;6763;48.524;9.044;2024-01-27T10:45:03;6.30;;;3.27;;
13386;SDS011;6763;48.524;9.044;2024-01-27T10:47:31;5.53;;;2.97;;
13386;SDS011;6763;48.524;9.044;2024-01-27T10:49:58;5.43;;;2.80;;
13386;SDS011;6763;48.524;9.044;2024-01-27T10:52:28;5.97;;;3.13;;
13386;SDS011;6763;48.524;9.044;2024-01-27T10:55:01;4.40;;;2.90;;
13386;SDS011;6763;48.524;9.044;2024-01-27T10:57:29;4.93;;;3.33;;
13386;SDS011;6763;48.524;9.044;2024-01-27T10:59:56;3.93;;;2.93;;
13386;SDS011;6763;48.524;9.044;2024-01-27T11:02:22;5.17;;;3.37;;
13386;SDS011;6763;48.524;9.044;2024-01-27T11:04:48;5.03;;;2.90;;
13386;SDS011;6763;48.524;9.044;2024-01-27T11:07:20;6.20;;;3.17;;
13386;SDS011;6763;48.524;9.044;2024-01-27T11:09:48;5.30;;;3.20;;
13386;SDS011;6763;48.524;9.044;2024-01-27T11:12:15;4.00;;;2.93;;
13386;SDS011;6763;48.524;9.044;2024-01-27T11:14:41;4.70;;;3.17;;
13386;SDS011;6763;48.524;9.044;2024-01-27T11:17:06;4.47;;;3.33;;
13386;SDS011;6763;48.524;9.044;2024-01-27T11:19:32;5.97;;;3.17;;
13386;SDS011;6763;48.524;9.044;2024-01-27T11:22:00;4.97;;;3.73;;
13386;SDS011;6763;48.524;9.044;2024-01-27T11:24:26;5.77;;;3.93;;
13386;SDS011;6763;48.524;9.044;2024-01-27T11:27:04;5.80;;;3.80;;
13386;SDS011;6763;48.524;9.044;2024-01-27T11:29:31;5.47;;;3.17;;
13386;SDS011;6763;48.524;9.044;2024-01-27T11:32:02;6.00;;;3.27;;
13386;SDS011;6763;48.524;9.044;2024-01-27T11:34:28;7.00;;;3.63;;
13386;SDS011;6763;48.524;9.044;2024-01-27T11:37:14;3.87;;;3.03;;
13386;SDS011;6763;48.524;9.044;2024-01-27T11:39:41;6.77;;;3.57;;
13386;SDS011;6763;48.524;9.044;2024-01-27T11:42:07;6.43;;;3.77;;
13386;SDS011;6763;48.524;9.044;2024-01-27T11:44:36;8.27;;;3.60;;
13386;SDS011;6763;48.524;9.044;2024-01-27T11:47:02;5.53;;;3.60;;
13386;SDS011;6763;48.524;9.044;2024-01-27T11:49:28;6.23;;;3.20;;
13386;SDS011;6763;48.524;9.044;2024-01-27T11:51:54;3.57;;;2.67;;
13386;SDS011;6763;48.524;9.044;2024-01-27T11:54:20;3.20;;;2.57;;
13386;SDS011;6763;48.524;9.044;2024-01-27T11:56:45;2.80;;;2.20;;
13386;SDS011;6763;48.524;9.044;2024-01-27T11:59:11;3.57;;;2.03;;
13386;SDS011;6763;48.524;9.044;2024-01-27T12:01:36;3.23;;;2.03;;
13386;SDS011;6763;48.524;9.044;2024-01-27T12:04:02;4.37;;;2.63;;
13386;SDS011;6763;48.524;9.044;2024-01-27T12:06:29;5.47;;;3.80;;
13386;SDS011;6763;48.524;9.044;2024-01-27T12:08:55;7.03;;;4.10;;
13386;SDS011;6763;48.524;9.044;2024-01-27T12:11:22;5.93;;;3.57;;
13386;SDS011;6763;48.524;9.044;2024-01-27T12:13:50;8.07;;;4.60;;
13386;SDS011;6763;48.524;9.044;2024-01-27T12:16:17;6.23;;;3.53;;
13386;SDS011;6763;48.524;9.044;2024-01-27T12:18:43;7.60;;;4.00;;
13386;SDS011;6763;48.524;9.044;2024-01-27T12:21:11;8.33;;;3.67;;
13386;SDS011;6763;48.524;9.044;2024-01-27T12:23:36;7.40;;;4.50;;
13386;SDS011;6763;48.524;9.044;2024-01-27T12:26:14;9.57;;;4.53;;
13386;SDS011;6763;48.524;9.044;2024-01-27T12:28:39;6.77;;;4.40;;
13386;SDS011;6763;48.524;9.044;2024-01-27T12:31:05;4.97;;;3.60;;
13386;SDS011;6763;48.524;9.044;2024-01-27T12:33:30;5.43;;;3.57;;
13386;SDS011;6763;48.524;9.044;2024-01-27T12:35:55;8.63;;;5.63;;
13386;SDS011;6763;48.524;9.044;2024-01-27T12:38:21;7.67;;;4.17;;
13386;SDS011;6763;48.524;9.044;2024-01-27T12:40:47;5.47;;;3.40;;
13386;SDS011;6763;48.524;9.044;2024-01-27T12:43:12;6.93;;;3.97;;
13386;SDS011;6763;48.524;9.044;2024-01-27T12:45:39;6.97;;;4.00;;
13386;SDS011;6763;48.524;9.044;2024-01-27T12:48:04;7.97;;;4.43;;
13386;SDS011;6763;48.524;9.044;2024-01-27T12:50:30;7.07;;;4.10;;
13386;SDS011;6763;48.524;9.044;2024-01-27T12:52:57;5.83;;;3.20;;
13386;SDS011;6763;48.524;9.044;2024-01-27T12:55:22;9.80;;;4.17;;
13386;SDS011;6763;48.524;9.044;2024-01-27T12:57:47;6.93;;;4.10;;
13386;SDS011;6763;48.524;9.044;2024-01-27T13:00:13;6.20;;;3.30;;
13386;SDS011;6763;48.524;9.044;2024-01-27T13:02:40;5.07;;;3.43;;
13386;SDS011;6763;48.524;9.044;2024-01-27T13:05:05;5.30;;;3.47;;
13386;SDS011;6763;48.524;9.044;2024-01-27T13:07:31;6.10;;;3.30;;
13386;SDS011;6763;48.524;9.044;2024-01-27T13:09:56;3.70;;;3.27;;
13386;SDS011;6763;48.524;9.044;2024-01-27T13:12:21;6.13;;;3.50;;
13386;SDS011;6763;48.524;9.044;2024-01-27T13:14:47;6.03;;;3.17;;
13386;SDS011;6763;48.524;9.044;2024-01-27T13:17:13;4.17;;;3.23;;
13386;SDS011;6763;48.524;9.044;2024-01-27T13:19:39;4.97;;;3.23;;
13386;SDS011;6763;48.524;9.044;2024-01-27T13:22:05;4.70;;;2.97;;
13386;SDS011;6763;48.524;9.044;2024-01-27T13:24:31;4.20;;;3.30;;
13386;SDS011;6763;48.524;9.044;2024-01-27T13:26:57;5.07;;;3.00;;
13386;SDS011;6763;48.524;9.044;2024-01-27T13:29:22;5.07;;;3.37;;
13386;SDS011;6763;48.524;9.044;2024-01-27T13:31:48;5.80;;;3.83;;
13386;SDS011;6763;48.524;9.044;2024-01-27T13:34:14;7.07;;;4.80;;
13386;SDS011;6763;48.524;9.044;2024-01-27T13:36:39;11.10;;;6.97;;
13386;SDS011;6763;48.524;9.044;2024-01-27T13:39:05;15.27;;;8.43;;
13386;SDS011;6763;48.524;9.044;2024-01-27T13:41:30;18.90;;;9.27;;
13386;SDS011;6763;48.524;9.044;2024-01-27T13:43:55;20.80;;;11.43;;
13386;SDS011;6763;48.524;9.044;2024-01-27T13:46:21;21.97;;;10.37;;
13386;SDS011;6763;48.524;9.044;2024-01-27T13:48:48;18.47;;;10.60;;
13386;SDS011;6763;48.524;9.044;2024-01-27T13:51:14;20.30;;;10.87;;
13386;SDS011;6763;48.524;9.044;2024-01-27T13:53:39;20.40;;;11.57;;
13386;SDS011;6763;48.524;9.044;2024-01-27T13:56:05;20.33;;;10.73;;
13386;SDS011;6763;48.524;9.044;2024-01-27T13:58:31;20.47;;;10.33;;
13386;SDS011;6763;48.524;9.044;2024-01-27T14:00:56;18.43;;;9.77;;
13386;SDS011;6763;48.524;9.044;2024-01-27T14:03:21;18.37;;;9.83;;
13386;SDS011;6763;48.524;9.044;2024-01-27T14:05:48;17.30;;;9.60;;
13386;SDS011;6763;48.524;9.044;2024-01-27T14:08:13;20.90;;;11.03;;
13386;SDS011;6763;48.524;9.044;2024-01-27T14:10:39;18.57;;;9.00;;
13386;SDS011;6763;48.524;9.044;2024-01-27T14:13:04;18.23;;;8.87;;
13386;SDS011;6763;48.524;9.044;2024-01-27T14:15:34;14.73;;;8.33;;
13386;SDS011;6763;48.524;9.044;2024-01-27T14:18:02;14.40;;;8.23;;
13386;SDS011;6763;48.524;9.044;2024-01-27T14:20:31;8.73;;;5.70;;
13386;SDS011;6763;48.524;9.044;2024-01-27T14:23:01;9.60;;;5.73;;
13386;SDS011;6763;48.524;9.044;2024-01-27T14:25:27;9.67;;;5.73;;
13386;SDS011;6763;48.524;9.044;2024-01-27T14:27:52;9.37;;;5.53;;
13386;SDS011;6763;48.524;9.044;2024-01-27T14:30:18;10.77;;;4.93;;
13386;SDS011;6763;48.524;9.044;2024-01-27T14:32:43;9.60;;;5.17;;
13386;SDS011;6763;48.524;9.044;2024-01-27T14:35:09;5.67;;;4.10;;
13386;SDS011;6763;48.524;9.044;2024-01-27T14:37:35;7.97;;;4.60;;
13386;SDS011;6763;48.524;9.044;2024-01-27T14:40:00;9.13;;;4.50;;
13386;SDS011;6763;48.524;9.044;2024-01-27T14:42:25;6.57;;;4.70;;
13386;SDS011;6763;48.524;9.044;2024-01-27T14:44:51;8.17;;;4.70;;
13386;SDS011;6763;48.524;9.044;2024-01-27T14:47:20;5.97;;;4.03;;
13386;SDS011;6763;48.524;9.044;2024-01-27T14:49:45;8.13;;;4.50;;
13386;SDS011;6763;48.524;9.044;2024-01-27T14:52:11;8.03;;;4.87;;